Flight Track Log - Related Links

Times and Time Zones

All times are in EDT time to prevent confusion due to time zone crossing. See the MLN121 flight status page for this flight to view local times or setup timezone preferences in your user account.

Time Position Orientation Groundspeed Altitude Reporting Facility
EDT Latitude Longitude Course Direction KTS MPH feet Rate Location/Type
Wed 05:51:10 PM 32.2453 -81.2197 North 249 287 5,200  Level Jacksonville Center
Wed 05:52:10 PM 32.3144 -81.2383 347° North 249 287 7,800 2,500 Climbing Jacksonville Center
Wed 05:53:10 PM 32.3917 -81.2319 North 261 300 10,200 2,150 Climbing Jacksonville Center
Wed 05:54:10 PM 32.4667 -81.2256 North 289 333 12,100 1,800 Climbing Jacksonville Center
Wed 05:55:00 PM 32.7696 -81.1431 North  Level FlightAware
Wed 05:55:10 PM 32.5625 -81.2139 North 324 373 13,800  Level Jacksonville Center
Wed 05:56:00 PM 32.8787 -81.1322 North  Level FlightAware
Wed 05:56:10 PM 32.6772 -81.2019 North 362 417 15,700  Level Jacksonville Center
Wed 05:57:10 PM 32.7856 -81.1850 North 372 428 17,400 1,750 Climbing Jacksonville Center
Wed 05:58:10 PM 32.8939 -81.1706 North 377 434 19,200 1,750 Climbing Jacksonville Center
Wed 05:59:10 PM 33.0064 -81.1611 North 395 455 20,900 1,600 Climbing Jacksonville Center
Wed 06:00:10 PM 33.1211 -81.1439 North 401 461 22,400 1,450 Climbing Jacksonville Center
Wed 06:01:10 PM 33.2356 -81.1319 North 406 467 23,800 1,400 Climbing Jacksonville Center
Wed 06:02:10 PM 33.3564 -81.1194 North 406 467 25,200 1,350 Climbing Jacksonville Center
Wed 06:03:10 PM 33.4753 -81.1022 North 423 487 26,500 1,200 Climbing Jacksonville Center
Wed 06:04:10 PM 33.5961 -81.0897 North 428 493 27,600 1,050 Climbing Jacksonville Center
Wed 06:05:10 PM 33.7231 -81.0722 North 440 506 28,600 950 Climbing Jacksonville Center
Wed 06:06:10 PM 33.8397 -81.0572 North 457 526 29,500 950 Climbing Jacksonville Center
Wed 06:07:10 PM 33.9714 -81.0719 355° North 463 533 30,500 1,000 Climbing Jacksonville Center
Wed 06:08:10 PM 34.1033 -81.0994 350° North 469 540 31,500 1,013 Climbing Jacksonville Center
Wed 06:09:44 PM 34.3047 -81.1344 352° North 491 565 33,100 1,519 Climbing Atlanta Center
Wed 06:10:44 PM 34.4494 -81.1697 349° North 484 557 35,400 1,950 Climbing Atlanta Center
Wed 06:11:44 PM 34.5794 -81.1931 352° North 471 542 37,000 1,400 Climbing Atlanta Center
Wed 06:12:44 PM 34.7072 -81.2164 351° North 471 542 38,200 1,100 Climbing Atlanta Center
Wed 06:13:44 PM 34.8414 -81.2422 351° North 471 542 39,200 1,050 Climbing Atlanta Center
Wed 06:14:44 PM 34.9756 -81.2681 351° North 471 542 40,300 900 Climbing Atlanta Center
Wed 06:15:44 PM 35.1053 -81.2917 352° North 477 549 41,000 350 Climbing Atlanta Center
Wed 06:16:44 PM 35.2439 -81.3203 350° North 484 557 41,000  Level Atlanta Center
Wed 06:17:44 PM 35.3800 -81.3464 351° North 489 563 41,000  Level Atlanta Center
Wed 06:18:44 PM 35.4994 -81.3756 349° North 484 557 41,000  Level Atlanta Center
Wed 06:19:44 PM 35.6419 -81.4017 352° North 502 578 41,000  Level Atlanta Center
Wed 06:20:44 PM 35.7928 -81.4275 352° North 508 585 41,000  Level Atlanta Center
Wed 06:21:44 PM 35.9225 -81.4514 352° North 488 562 41,000  Level Atlanta Center
Wed 06:22:44 PM 36.0567 -81.4753 352° North 483 556 41,000  Level Atlanta Center
Wed 06:23:44 PM 36.1928 -81.5019 351° North 483 556 41,000  Level Atlanta Center
Wed 06:24:44 PM 36.3267 -81.5286 351° North 483 556 41,000  Level Atlanta Center
Wed 06:25:44 PM 36.4586 -81.5556 351° North 483 556 41,000  Level Atlanta Center
Wed 06:26:44 PM 36.5800 -81.5775 352° North 483 556 41,000  Level Atlanta Center
Wed 06:27:44 PM 36.7161 -81.6044 351° North 483 556 41,000  Level Atlanta Center
Wed 06:28:44 PM 36.8522 -81.6342 350° North 488 562 41,000  Level Atlanta Center
Wed 06:29:32 PM 36.9633 -81.6564 351° North 498 573 41,000  Level Indianapolis Center
Wed 06:30:34 PM 37.1025 -81.6839 351° North 502 578 41,000  Level Indianapolis Center
Wed 06:31:36 PM 37.2625 -81.7169 351° North 500 575 41,000  Level Indianapolis Center
Wed 06:32:38 PM 37.3975 -81.7439 351° North 494 568 41,000  Level Indianapolis Center
Wed 06:33:40 PM 37.5322 -81.7717 351° North 492 566 41,000  Level Indianapolis Center
Wed 06:34:42 PM 37.6667 -81.8003 350° North 491 565 41,000  Level Indianapolis Center
Wed 06:35:44 PM 37.8019 -81.8275 351° North 491 565 41,000  Level Indianapolis Center
Wed 06:36:46 PM 37.9394 -81.8550 351° North 492 566 41,000 -194 Level Indianapolis Center
Wed 06:37:48 PM 38.0742 -81.8842 350° North 490 564 40,600 -1,065 Descending Indianapolis Center
Wed 06:38:50 PM 38.2364 -81.9175 351° North 488 562 38,800 -1,839 Descending Indianapolis Center
Wed 06:39:52 PM 38.3747 -81.9461 351° North 497 572 36,800 -1,872 Descending Indianapolis Center
Wed 06:40:55 PM 38.5078 -81.9744 351° North 480 552 34,900 -1,872 Descending Indianapolis Center
Wed 06:41:57 PM 38.6372 -81.9994 351° North 467 537 32,900 -1,984 Descending Indianapolis Center
Wed 06:42:59 PM 38.7714 -81.9728 North 481 554 30,800 -1,935 Descending Indianapolis Center
Wed 06:44:01 PM 38.8936 -81.8769 31° Northeast 507 583 28,900 -1,790 Descending Indianapolis Center
Wed 06:45:03 PM 39.0089 -81.7714 35° Northeast 505 581 27,100 -1,694 Descending Indianapolis Center
Wed 06:46:05 PM 39.1156 -81.6728 36° Northeast 468 539 25,400 -1,645 Descending Indianapolis Center
Wed 06:47:07 PM 39.2189 -81.5772 36° Northeast 457 526 23,700 -1,839 Descending Indianapolis Center
Wed 06:48:09 PM 39.3400 -81.4653 36° Northeast 446 513 21,600 -1,306 Descending Indianapolis Center
Wed 06:49:11 PM 39.4411 -81.3714 36° Northeast 448 516 21,000 -290 Descending Indianapolis Center
Wed 06:50:13 PM 39.5425 -81.2775 36° Northeast 446 513 21,000  Level Indianapolis Center
Wed 06:51:15 PM 39.6417 -81.1806 37° Northeast 445 512 21,000 -145 Level Indianapolis Center
Wed 06:52:17 PM 39.7422 -81.0831 37° Northeast 447 514 20,700 -1,452 Descending Indianapolis Center
Wed 06:53:19 PM 39.8414 -80.9875 36° Northeast 444 511 18,000 -2,714 Descending Indianapolis Center
Wed 06:54:23 PM 39.9347 -80.8961 37° Northeast 422 486 15,000 -3,093 Descending Indianapolis Center
Wed 06:54:56 PM 39.9939 -80.8378 37° Northeast 423 487 13,000 -3,097 Descending Cleveland Center
Wed 06:55:56 PM 40.0775 -80.7486 39° Northeast 397 457 10,200 -1,500 Descending Cleveland Center
Wed 06:56:56 PM 40.1506 -80.6700 39° Northeast 369 425 10,000 -300 Descending Cleveland Center
Wed 06:57:56 PM 40.2172 -80.5967 40° Northeast 335 386 9,600 -900 Descending Cleveland Center
Wed 06:58:56 PM 40.2922 -80.5206 38° Northeast 312 359 8,200 -1,350 Descending Cleveland Center
Wed 06:59:56 PM 40.3589 -80.4578 36° Northeast 299 344 6,900 -1,150 Descending Cleveland Center
Wed 07:00:56 PM 40.3756 -80.3542 78° East 266 306 5,900 -500 Descending Cleveland Center
Wed 07:01:56 PM 40.3794 -80.2725 86° East 256 295 5,900  Level Cleveland Center
Wed 07:02:56 PM 40.3894 -80.1825 82° East 251 289 5,900  Level Cleveland Center
Wed 07:04:00 PM 40.4833 -80.2167 270° West  Level FlightAware
Wed 07:11:00 PM 40.4915 -80.2329 270° West  Level Estimated
Wed 07:12:00 PM 40.4915 -80.2329 270° West  Level Estimated
Wed 07:13:00 PM 40.4915 -80.2329 270° West  Level Estimated

Login

Don't have an account? Register now (free) for customized features, flight alerts, and more!